createdAt,value
2016-06-07T00:00:38.725Z,22.39
2016-06-07T00:01:39.525Z,22.39
2016-06-07T00:02:39.044Z,22.39
2016-06-07T00:03:38.656Z,22.38
2016-06-07T00:04:38.704Z,22.35
2016-06-07T00:05:39.380Z,22.38
2016-06-07T00:06:39.679Z,22.35
2016-06-07T00:07:38.588Z,22.38
2016-06-07T00:08:38.043Z,22.32
2016-06-07T00:09:37.952Z,22.34
2016-06-07T00:10:37.987Z,22.31
2016-06-07T00:11:37.974Z,22.34
2016-06-07T00:12:37.993Z,22.35
2016-06-07T00:13:38.260Z,22.35
2016-06-07T00:14:37.919Z,22.29
2016-06-07T00:15:38.328Z,22.31
2016-06-07T00:16:37.893Z,22.28
2016-06-07T00:17:37.881Z,22.28
2016-06-07T00:18:37.898Z,22.27
2016-06-07T00:19:37.823Z,22.25
2016-06-07T00:20:38.639Z,22.16
2016-06-07T00:21:39.001Z,22.14
2016-06-07T00:22:37.770Z,22.22
2016-06-07T00:23:37.756Z,22.17
2016-06-07T00:24:37.727Z,22.2
2016-06-07T00:25:37.714Z,22.2
2016-06-07T00:26:38.123Z,22.13
2016-06-07T00:27:37.891Z,22.13
2016-06-07T00:28:38.036Z,22.06
2016-06-07T00:29:37.648Z,22.12
2016-06-07T00:30:37.869Z,22.12
2016-06-07T00:31:37.855Z,22.16
2016-06-07T00:32:37.593Z,22.09
2016-06-07T00:33:37.564Z,22.13
2016-06-07T00:34:37.630Z,22.04
2016-06-07T00:35:37.960Z,22.12
2016-06-07T00:36:38.166Z,22.07
2016-06-07T00:37:37.934Z,22.07
2016-06-07T00:38:37.500Z,22.1
2016-06-07T00:39:37.455Z,22.16
2016-06-07T00:40:37.473Z,22.06
2016-06-07T00:41:37.413Z,22.09
2016-06-07T00:42:37.448Z,22.06
2016-06-07T00:43:37.404Z,22.1
2016-06-07T00:44:37.390Z,22.04
2016-06-07T00:45:37.424Z,22.02
2016-06-07T00:46:37.381Z,21.99
2016-06-07T00:47:37.337Z,22.01
2016-06-07T00:48:37.339Z,22.01
2016-06-07T00:49:37.279Z,22.06
2016-06-07T00:50:37.484Z,21.99
2016-06-07T00:51:37.253Z,22.02
2016-06-07T00:52:37.240Z,22.02
2016-06-07T00:53:37.196Z,21.99
2016-06-07T00:54:37.402Z,21.97
2016-06-07T00:55:37.186Z,22.01
2016-06-07T00:56:37.142Z,21.88
2016-06-07T00:57:36.989Z,21.99
2016-06-07T00:58:37.116Z,21.91
2016-06-07T00:59:37.103Z,21.98
2016-06-07T01:00:37.075Z,21.85
2016-06-07T01:01:37.061Z,21.95
2016-06-07T01:02:37.049Z,21.85
2016-06-07T01:03:37.067Z,22.02
2016-06-07T01:04:37.007Z,21.95
2016-06-07T01:05:37.010Z,21.94
2016-06-07T01:06:37.559Z,21.98
2016-06-07T01:07:36.999Z,21.79
2016-06-07T01:08:36.955Z,21.9
2016-06-07T01:09:36.911Z,21.85
2016-06-07T01:10:36.899Z,21.88
2016-06-07T01:11:36.963Z,21.85
2016-06-07T01:12:36.840Z,21.9
2016-06-07T01:13:36.828Z,21.82
2016-06-07T01:14:36.987Z,21.81
2016-06-07T01:15:36.818Z,21.91
2016-06-07T01:16:36.992Z,21.81
2016-06-07T01:17:36.776Z,21.82
2016-06-07T01:18:36.748Z,21.81
2016-06-07T01:19:36.734Z,21.83
2016-06-07T01:20:37.112Z,21.85
2016-06-07T01:21:37.271Z,21.82
2016-06-07T01:22:36.681Z,21.82
2016-06-07T01:23:36.651Z,21.9
2016-06-07T01:24:36.654Z,21.81
2016-06-07T01:25:36.625Z,21.81
2016-06-07T01:26:36.582Z,21.79
2016-06-07T01:27:36.647Z,21.81
2016-06-07T01:28:36.540Z,21.79
2016-06-07T01:29:36.542Z,21.78
2016-06-07T01:30:36.514Z,21.78
2016-06-07T01:31:36.517Z,21.63
2016-06-07T01:32:36.489Z,21.69
2016-06-07T01:33:36.460Z,21.67
2016-06-07T01:34:36.525Z,21.63
2016-06-07T01:35:36.933Z,21.63
2016-06-07T01:36:36.469Z,21.66
2016-06-07T01:37:36.393Z,21.64
2016-06-07T01:38:36.364Z,21.64
2016-06-07T01:39:36.366Z,21.59
2016-06-07T01:40:36.229Z,21.57
2016-06-07T01:41:36.357Z,21.59
2016-06-07T01:42:36.297Z,21.64
2016-06-07T01:43:36.284Z,21.54
2016-06-07T01:44:36.301Z,21.56
2016-06-07T01:45:36.242Z,21.59
2016-06-07T01:46:36.245Z,21.51
2016-06-07T01:47:36.200Z,21.56
2016-06-07T01:48:36.176Z,21.53
2016-06-07T01:49:36.178Z,21.59
2016-06-07T01:50:36.179Z,21.53
2016-06-07T01:51:36.807Z,21.51
2016-06-07T01:52:36.246Z,21.54
2016-06-07T01:53:36.168Z,21.57
2016-06-07T01:54:36.160Z,21.53
2016-06-07T01:55:36.262Z,21.5
2016-06-07T01:56:36.115Z,21.5
2016-06-07T01:57:36.122Z,21.51
2016-06-07T01:58:36.333Z,21.51
2016-06-07T01:59:36.399Z,21.48
2016-06-07T02:00:36.075Z,21.45
2016-06-07T02:01:36.065Z,21.5
2016-06-07T02:02:36.023Z,21.51
2016-06-07T02:03:36.011Z,21.46
2016-06-07T02:04:35.984Z,21.51
2016-06-07T02:05:35.988Z,21.5
2016-06-07T02:06:36.553Z,21.41
2016-06-07T02:07:35.978Z,21.48
2016-06-07T02:08:35.998Z,21.46
2016-06-07T02:09:35.923Z,21.48
2016-06-07T02:10:35.910Z,21.44
2016-06-07T02:11:35.865Z,21.5
2016-06-07T02:12:35.822Z,21.51
2016-06-07T02:13:35.825Z,21.45
2016-06-07T02:14:35.656Z,21.41
2016-06-07T02:15:35.830Z,21.41
2016-06-07T02:16:35.802Z,21.36
2016-06-07T02:17:35.742Z,21.39
2016-06-07T02:18:35.730Z,21.38
2016-06-07T02:19:35.701Z,21.36
2016-06-07T02:20:35.688Z,21.39
2016-06-07T02:21:35.674Z,21.36
2016-06-07T02:22:35.662Z,21.38
2016-06-07T02:23:35.634Z,21.32
2016-06-07T02:24:35.480Z,21.34
2016-06-07T02:25:35.592Z,21.32
2016-06-07T02:26:35.563Z,21.32
2016-06-07T02:27:35.566Z,21.34
2016-06-07T02:28:35.537Z,21.35
2016-06-07T02:29:35.509Z,21.29
2016-06-07T02:30:35.511Z,21.29
2016-06-07T02:31:35.483Z,21.35
2016-06-07T02:32:35.486Z,21.27
2016-06-07T02:33:35.520Z,21.32
2016-06-07T02:34:35.445Z,21.32
2016-06-07T02:35:35.462Z,21.26
2016-06-07T02:36:35.403Z,21.29
2016-06-07T02:37:36.577Z,21.23
2016-06-07T02:38:36.970Z,21.29
2016-06-07T02:39:35.583Z,21.32
2016-06-07T02:40:35.336Z,21.27
2016-06-07T02:41:35.291Z,21.29
2016-06-07T02:42:35.419Z,21.26
2016-06-07T02:43:35.547Z,21.17
2016-06-07T02:44:35.283Z,21.26
2016-06-07T02:45:35.239Z,21.24
2016-06-07T02:46:35.211Z,21.14
2016-06-07T02:47:35.182Z,21.14
2016-06-07T02:48:35.169Z,21.19
2016-06-07T02:49:35.687Z,21.14
2016-06-07T02:50:35.316Z,21.14
2016-06-07T02:51:36.210Z,21.21
2016-06-07T02:52:35.132Z,21.11
2016-06-07T02:53:36.449Z,21.17
2016-06-07T02:54:35.170Z,21.17
2016-06-07T02:55:35.048Z,21.17
2016-06-07T02:56:35.066Z,21.14
2016-06-07T02:57:35.006Z,21.16
2016-06-07T02:58:35.024Z,21.2
2016-06-07T02:59:35.043Z,21.16
2016-06-07T03:00:34.937Z,21.13
2016-06-07T03:01:34.954Z,21.13
2016-06-07T03:02:34.942Z,21.13
2016-06-07T03:03:34.944Z,21.11
2016-06-07T03:04:34.947Z,21.13
2016-06-07T03:05:34.856Z,21.11
2016-06-07T03:06:35.749Z,21.13
2016-06-07T03:07:34.830Z,21.08
2016-06-07T03:08:34.848Z,21.06
2016-06-07T03:09:34.773Z,21.02
2016-06-07T03:10:34.760Z,21.05
2016-06-07T03:11:34.763Z,21.09
2016-06-07T03:12:34.702Z,21.04
2016-06-07T03:13:34.768Z,21.06
2016-06-07T03:14:34.661Z,21.04
2016-06-07T03:15:34.663Z,21.04
2016-06-07T03:16:34.651Z,21.06
2016-06-07T03:17:34.622Z,20.96
2016-06-07T03:18:34.610Z,20.98
2016-06-07T03:19:34.660Z,21.05
2016-06-07T03:20:34.583Z,21.08
2016-06-07T03:21:34.586Z,21.08
2016-06-07T03:22:34.949Z,20.99
2016-06-07T03:23:34.545Z,21.04
2016-06-07T03:24:34.485Z,21.04
2016-06-07T03:25:34.488Z,21.01
2016-06-07T03:26:34.429Z,21.01
2016-06-07T03:27:34.431Z,21.04
2016-06-07T03:28:34.418Z,20.98
2016-06-07T03:29:34.404Z,20.96
2016-06-07T03:30:34.360Z,21.01
2016-06-07T03:31:34.348Z,21.01
2016-06-07T03:32:34.335Z,21.04
2016-06-07T03:33:34.290Z,20.95
2016-06-07T03:34:34.262Z,20.95
2016-06-07T03:35:34.280Z,20.98
2016-06-07T03:36:34.267Z,20.99
2016-06-07T03:37:34.083Z,20.98
2016-06-07T03:38:34.053Z,20.99
2016-06-07T03:39:34.181Z,20.99
2016-06-07T03:40:34.169Z,20.93
2016-06-07T03:41:34.187Z,21.01
2016-06-07T03:42:34.142Z,20.96
2016-06-07T03:43:34.114Z,20.99
2016-06-07T03:44:34.117Z,20.98
2016-06-07T03:45:34.088Z,20.93
2016-06-07T03:46:34.060Z,21.01
2016-06-07T03:47:34.047Z,20.96
2016-06-07T03:48:34.049Z,21.05
2016-06-07T03:49:34.036Z,20.99
2016-06-07T03:50:33.977Z,20.99
2016-06-07T03:51:34.136Z,20.99
2016-06-07T03:52:33.982Z,20.99
2016-06-07T03:53:34.032Z,21.04
2016-06-07T03:54:34.019Z,21.02
2016-06-07T03:55:33.896Z,21.01
2016-06-07T03:56:33.962Z,21.02
2016-06-07T03:57:33.886Z,21.08
2016-06-07T03:58:34.076Z,21.11
2016-06-07T03:59:33.923Z,21.01
2016-06-07T04:00:33.785Z,21.01
2016-06-07T04:01:33.773Z,21.02
2016-06-07T04:02:34.228Z,21.14
2016-06-07T04:03:33.793Z,21.05
2016-06-07T04:04:33.717Z,21.05
2016-06-07T04:05:33.704Z,21.14
2016-06-07T04:06:34.926Z,21.13
2016-06-07T04:07:34.429Z,21.11
2016-06-07T04:08:34.056Z,21.13
2016-06-07T04:09:33.575Z,21.08
2016-06-07T04:10:33.687Z,21.11
2016-06-07T04:11:34.595Z,21.14
2016-06-07T04:12:34.270Z,21.11
2016-06-07T04:13:33.586Z,21.13
2016-06-07T04:14:33.370Z,21.11
2016-06-07T04:15:33.497Z,21.2
2016-06-07T04:16:33.483Z,21.14
2016-06-07T04:17:33.503Z,21.16
2016-06-07T04:18:33.459Z,21.14
2016-06-07T04:19:33.477Z,21.14
2016-06-07T04:20:33.401Z,21.2
2016-06-07T04:21:33.732Z,21.14
2016-06-07T04:22:33.532Z,21.16
2016-06-07T04:23:33.347Z,21.14
2016-06-07T04:24:33.366Z,21.16
2016-06-07T04:25:33.352Z,21.19
2016-06-07T04:26:33.729Z,21.11
2016-06-07T04:27:33.296Z,21.16
2016-06-07T04:28:33.251Z,21.16
2016-06-07T04:29:33.582Z,21.13
2016-06-07T04:30:33.209Z,21.13
2016-06-07T04:31:33.041Z,21.2
2016-06-07T04:32:33.168Z,21.08
2016-06-07T04:33:33.186Z,21.2
2016-06-07T04:34:33.299Z,21.2
2016-06-07T04:35:32.988Z,21.14
2016-06-07T04:36:33.101Z,21.2
2016-06-07T04:37:33.400Z,21.24
2016-06-07T04:38:33.059Z,21.21
2016-06-07T04:39:33.030Z,21.17
2016-06-07T04:40:33.034Z,21.17
2016-06-07T04:41:33.036Z,21.17
2016-06-07T04:42:32.836Z,21.2
2016-06-07T04:43:32.963Z,21.23
2016-06-07T04:44:32.810Z,21.27
2016-06-07T04:45:32.968Z,21.27
2016-06-07T04:46:32.955Z,21.24
2016-06-07T04:47:32.911Z,21.24
2016-06-07T04:48:32.883Z,21.26
2016-06-07T04:49:32.870Z,21.34
2016-06-07T04:50:32.872Z,21.36
2016-06-07T04:51:32.813Z,21.32
2016-06-07T04:52:33.330Z,21.32
2016-06-07T04:53:32.771Z,21.27
2016-06-07T04:54:32.790Z,21.32
2016-06-07T04:55:32.746Z,21.32
2016-06-07T04:56:32.748Z,21.29
2016-06-07T04:57:32.719Z,21.38
2016-06-07T04:58:32.691Z,21.41
2016-06-07T04:59:32.694Z,21.38
2016-06-07T05:00:32.649Z,21.41
2016-06-07T05:01:32.637Z,21.5
2016-06-07T05:02:32.607Z,21.45
2016-06-07T05:03:32.595Z,21.48
2016-06-07T05:04:32.598Z,21.44
2016-06-07T05:05:32.554Z,21.42
2016-06-07T05:06:32.557Z,21.48
2016-06-07T05:07:32.746Z,21.53
2016-06-07T05:08:32.484Z,21.53
2016-06-07T05:09:32.455Z,21.57
2016-06-07T05:10:32.458Z,21.54
2016-06-07T05:11:33.242Z,21.51
2016-06-07T05:12:32.431Z,21.64
2016-06-07T05:13:32.403Z,21.6
2016-06-07T05:14:32.406Z,21.66
2016-06-07T05:15:32.362Z,21.63
2016-06-07T05:16:32.349Z,21.64
2016-06-07T05:17:32.913Z,21.71
2016-06-07T05:18:32.323Z,21.67
2016-06-07T05:19:32.278Z,21.74
2016-06-07T05:20:32.281Z,21.71
2016-06-07T05:21:32.315Z,21.79
2016-06-07T05:22:32.694Z,21.79
2016-06-07T05:23:32.274Z,21.83
2016-06-07T05:24:32.199Z,21.83
2016-06-07T05:25:32.154Z,21.85
2016-06-07T05:26:32.141Z,21.9
2016-06-07T05:27:32.144Z,21.88
2016-06-07T05:28:32.116Z,21.9
2016-06-07T05:29:32.196Z,21.83
2016-06-07T05:30:31.948Z,21.85
2016-06-07T05:31:31.889Z,21.97
2016-06-07T05:32:32.063Z,21.91
2016-06-07T05:33:32.082Z,22.04
2016-06-07T05:34:32.007Z,22.06
2016-06-07T05:35:31.994Z,21.98
2016-06-07T05:36:32.028Z,22.07
2016-06-07T05:37:31.967Z,22.13
2016-06-07T05:38:32.018Z,22.01
2016-06-07T05:39:31.926Z,22.09
2016-06-07T05:40:32.164Z,22.13
2016-06-07T05:41:31.900Z,22.07
2016-06-07T05:42:31.887Z,22.12
2016-06-07T05:43:31.953Z,22.12
2016-06-07T05:44:31.815Z,22.22
2016-06-07T05:45:32.130Z,22.23
2016-06-07T05:46:31.789Z,22.28
2016-06-07T05:47:31.760Z,22.29
2016-06-07T05:48:31.731Z,22.28
2016-06-07T05:49:31.828Z,22.34
2016-06-07T05:50:31.705Z,22.34
2016-06-07T05:51:31.614Z,22.35
2016-06-07T05:52:31.696Z,22.39
2016-06-07T05:53:31.699Z,22.34
2016-06-07T05:54:31.748Z,22.32
2016-06-07T05:55:31.688Z,22.41
2016-06-07T05:56:31.957Z,22.44
2016-06-07T05:57:31.413Z,22.49
2016-06-07T05:58:31.478Z,22.44
2016-06-07T05:59:31.543Z,22.49
2016-06-07T06:00:31.607Z,22.53
2016-06-07T06:01:31.502Z,22.49
2016-06-07T06:02:31.582Z,22.56
2016-06-07T06:03:31.491Z,22.52
2016-06-07T06:04:31.462Z,22.53
2016-06-07T06:05:31.418Z,22.59
2016-06-07T06:06:31.749Z,22.6
2016-06-07T06:07:32.018Z,22.57
2016-06-07T06:08:32.254Z,22.64
2016-06-07T06:09:31.382Z,22.71
2016-06-07T06:10:31.370Z,22.68
2016-06-07T06:11:31.497Z,22.74
2016-06-07T06:12:31.375Z,22.74
2016-06-07T06:13:31.299Z,22.71
2016-06-07T06:14:31.317Z,22.75
2016-06-07T06:15:31.320Z,22.8
2016-06-07T06:16:31.228Z,22.8
2016-06-07T06:17:31.373Z,22.82
2016-06-07T06:18:31.203Z,22.84
2016-06-07T06:19:31.190Z,22.83
2016-06-07T06:20:31.146Z,22.84
2016-06-07T06:21:31.242Z,22.86
2016-06-07T06:22:31.620Z,22.84
2016-06-07T06:23:32.264Z,22.86
2016-06-07T06:24:31.750Z,22.96
2016-06-07T06:25:30.941Z,22.94
2016-06-07T06:26:30.897Z,22.97
2016-06-07T06:27:31.071Z,22.97
2016-06-07T06:28:31.043Z,23.01
2016-06-07T06:29:31.138Z,23.02
2016-06-07T06:30:31.080Z,22.96
2016-06-07T06:31:31.066Z,22.99
2016-06-07T06:32:30.974Z,23.01
2016-06-07T06:33:30.932Z,23.07
2016-06-07T06:34:30.918Z,23.12
2016-06-07T06:35:31.201Z,23.02
2016-06-07T06:36:30.923Z,23.09
2016-06-07T06:37:30.957Z,23.11
2016-06-07T06:38:30.945Z,23.12
2016-06-07T06:39:30.900Z,23.11
2016-06-07T06:40:30.809Z,23.05
2016-06-07T06:41:30.967Z,23.17
2016-06-07T06:42:30.909Z,23.2
2016-06-07T06:43:37.677Z,23.15
2016-06-07T06:44:34.476Z,23.12
2016-06-07T06:45:30.931Z,23.29
2016-06-07T06:46:30.748Z,23.24
2016-06-07T06:47:30.719Z,23.32
2016-06-07T06:48:31.392Z,23.26
2016-06-07T06:49:30.631Z,23.32
2016-06-07T06:50:30.633Z,23.38
2016-06-07T06:51:30.667Z,23.43
2016-06-07T06:52:30.528Z,23.4
2016-06-07T06:53:30.814Z,23.42
2016-06-07T06:54:30.378Z,23.49
2016-06-07T06:55:30.505Z,23.52
2016-06-07T06:56:30.540Z,23.53
2016-06-07T06:57:30.480Z,23.55
2016-06-07T06:58:30.655Z,23.55
2016-06-07T06:59:30.282Z,23.5
2016-06-07T07:00:30.440Z,23.55
2016-06-07T07:01:30.475Z,23.62
2016-06-07T07:02:30.463Z,23.62
2016-06-07T07:03:30.387Z,23.65
2016-06-07T07:04:30.358Z,23.7
2016-06-07T07:05:30.783Z,23.7
2016-06-07T07:07:31.476Z,23.72
2016-06-07T07:08:30.353Z,23.8
2016-06-07T07:09:30.559Z,23.79
2016-06-07T07:10:31.140Z,23.85
2016-06-07T07:11:30.314Z,23.77
2016-06-07T07:12:30.254Z,23.83
2016-06-07T07:13:30.632Z,23.79
2016-06-07T07:14:30.385Z,23.82
2016-06-07T07:15:30.653Z,23.83
2016-06-07T07:16:30.156Z,23.87
2016-06-07T07:17:30.159Z,23.86
2016-06-07T07:18:30.114Z,23.82
2016-06-07T07:19:30.133Z,24.02
2016-06-07T07:20:30.088Z,23.89
2016-06-07T07:21:30.170Z,23.95
2016-06-07T07:22:31.219Z,23.94
2016-06-07T07:23:30.111Z,23.92
2016-06-07T07:24:30.053Z,23.95
2016-06-07T07:25:29.821Z,24.05
2016-06-07T07:26:29.964Z,23.92
2016-06-07T07:27:43.841Z,24.04
2016-06-07T07:28:29.782Z,24.02
2016-06-07T07:29:29.894Z,24.01
2016-06-07T07:30:29.913Z,24
2016-06-07T07:31:29.883Z,24.02
2016-06-07T07:32:29.871Z,24.04
2016-06-07T07:33:29.858Z,24.02
2016-06-07T07:34:29.705Z,24.02
2016-06-07T07:35:29.848Z,24.08
2016-06-07T07:36:29.882Z,24.14
2016-06-07T07:37:38.416Z,24.14
2016-06-07T07:38:29.731Z,24.13
2016-06-07T07:39:29.748Z,24.16
2016-06-07T07:40:29.579Z,24.16
2016-06-07T07:41:30.099Z,24.17
2016-06-07T07:42:29.679Z,24.17
2016-06-07T07:43:29.698Z,24.27
2016-06-07T07:44:29.653Z,24.22
2016-06-07T07:45:29.640Z,24.27
2016-06-07T07:46:29.642Z,24.32
2016-06-07T07:47:29.615Z,24.37
2016-06-07T07:48:29.570Z,24.37
2016-06-07T07:49:29.588Z,24.34
2016-06-07T07:50:28.747Z,24.32
2016-06-07T07:51:29.578Z,24.35
2016-06-07T07:52:29.565Z,24.49
2016-06-07T07:53:29.833Z,24.44
2016-06-07T07:54:29.461Z,24.47
2016-06-07T07:55:29.448Z,24.47
2016-06-07T07:56:29.450Z,24.52
2016-06-07T07:57:29.407Z,24.53
2016-06-07T07:58:30.863Z,24.6
2016-06-07T07:59:29.381Z,24.57
2016-06-07T08:00:29.368Z,24.54
2016-06-07T08:01:32.730Z,24.54
2016-06-07T08:02:29.342Z,24.61
2016-06-07T08:03:29.329Z,24.71
2016-06-07T08:04:29.301Z,24.64
2016-06-07T08:05:29.287Z,24.73
2016-06-07T08:06:29.321Z,24.69
2016-06-07T08:07:29.950Z,24.64
2016-06-07T08:08:29.655Z,24.68
2016-06-07T08:09:29.236Z,24.77
2016-06-07T08:10:29.254Z,24.69
2016-06-07T08:11:29.351Z,24.69
2016-06-07T08:12:29.213Z,24.71
2016-06-07T08:13:29.762Z,24.68
2016-06-07T08:14:29.187Z,24.68
2016-06-07T08:15:29.111Z,24.82
2016-06-07T08:16:29.145Z,24.8
2016-06-07T08:17:29.070Z,24.8
2016-06-07T08:18:29.370Z,24.85
2016-06-07T08:19:29.092Z,24.83
2016-06-07T08:20:29.031Z,24.85
2016-06-07T08:21:29.080Z,24.94
2016-06-07T08:22:28.974Z,24.85
2016-06-07T08:23:29.071Z,24.88
2016-06-07T08:24:28.995Z,24.91
2016-06-07T08:25:28.607Z,24.88
2016-06-07T08:26:28.953Z,24.92
2016-06-07T08:27:29.284Z,24.91
2016-06-07T08:28:29.005Z,24.97
2016-06-07T08:29:28.884Z,24.98
2016-06-07T08:30:29.152Z,25.01
2016-06-07T08:31:28.889Z,25.06
2016-06-07T08:32:28.829Z,25.09
2016-06-07T08:33:28.894Z,25.01
2016-06-07T08:34:29.099Z,25.07
2016-06-07T08:35:28.805Z,25.1
2016-06-07T08:36:29.372Z,25.17
2016-06-07T08:37:29.015Z,25.12
2016-06-07T08:38:29.454Z,25.07
2016-06-07T08:39:28.723Z,25.09
2016-06-07T08:40:29.084Z,25.06
2016-06-07T08:41:28.744Z,25.1
2016-06-07T08:42:28.684Z,25.05
2016-06-07T08:43:28.749Z,25.13
2016-06-07T08:44:28.720Z,25.12
2016-06-07T08:45:28.645Z,25.07
2016-06-07T08:46:28.539Z,25.1
2016-06-07T08:47:28.651Z,25.16
2016-06-07T08:48:28.575Z,25.17
2016-06-07T08:49:28.718Z,25.22
2016-06-07T08:50:28.533Z,25.31
2016-06-07T08:51:28.506Z,25.19
2016-06-07T08:52:28.586Z,25.17
2016-06-07T08:53:29.167Z,25.38
2016-06-07T08:54:28.466Z,25.31
2016-06-07T08:55:28.453Z,25.34
2016-06-07T08:56:28.769Z,25.32
2016-06-07T08:57:29.225Z,25.35
2016-06-07T08:58:28.555Z,25.44
2016-06-07T08:59:29.089Z,25.37
2016-06-07T09:00:28.452Z,25.43
2016-06-07T09:01:28.594Z,25.47
2016-06-07T09:02:28.394Z,25.42
2016-06-07T09:03:28.428Z,25.44
2016-06-07T09:04:28.383Z,25.49
2016-06-07T09:05:28.574Z,25.52
2016-06-07T09:06:28.389Z,25.53
2016-06-07T09:07:28.751Z,25.53
2016-06-07T09:08:28.551Z,25.5
2016-06-07T09:09:28.272Z,25.49
2016-06-07T09:10:28.196Z,25.54
2016-06-07T09:11:28.169Z,25.53
2016-06-07T09:12:28.171Z,25.62
2016-06-07T09:13:28.237Z,25.57
2016-06-07T09:14:28.129Z,25.67
2016-06-07T09:15:28.117Z,25.64
2016-06-07T09:16:28.135Z,25.65
2016-06-07T09:17:29.200Z,25.64
2016-06-07T09:18:28.187Z,25.68
2016-06-07T09:19:28.128Z,25.68
2016-06-07T09:20:28.333Z,25.71
2016-06-07T09:21:31.040Z,25.69
2016-06-07T09:22:28.073Z,25.67
2016-06-07T09:23:28.028Z,25.71
2016-06-07T09:24:28.047Z,25.75
2016-06-07T09:25:27.972Z,25.75
2016-06-07T09:26:27.975Z,25.8
2016-06-07T09:27:28.681Z,25.89
2016-06-07T09:28:27.933Z,25.9
2016-06-07T09:29:41.841Z,25.99
2016-06-07T09:30:28.032Z,25.99
2016-06-07T09:31:27.864Z,26.01
2016-06-07T09:32:28.069Z,26.01
2016-06-07T09:33:27.853Z,26.02
2016-06-07T09:34:28.200Z,26.08
2016-06-07T09:35:30.999Z,26.11
2016-06-07T09:36:28.298Z,26.15
2016-06-07T09:37:28.379Z,26.2
2016-06-07T09:38:28.132Z,26.27
2016-06-07T09:39:28.102Z,26.28
2016-06-07T09:40:27.887Z,26.32
2016-06-07T09:41:27.999Z,26.35
2016-06-07T09:42:27.674Z,26.35
2016-06-07T09:43:27.926Z,26.35
2016-06-07T09:44:27.632Z,26.36
2016-06-07T09:45:29.384Z,26.42
2016-06-07T09:46:28.091Z,26.5
2016-06-07T09:47:27.640Z,26.5
2016-06-07T09:49:27.990Z,26.58
2016-06-07T09:50:27.601Z,26.65
2016-06-07T09:51:27.776Z,26.64
2016-06-07T09:52:27.842Z,26.72
2016-06-07T09:53:28.453Z,26.69
2016-06-07T09:55:27.646Z,26.79
2016-06-07T09:56:27.727Z,26.81
2016-06-07T09:57:27.261Z,26.84
2016-06-07T09:58:27.717Z,26.92
2016-06-07T09:59:27.438Z,26.94
2016-06-07T10:00:27.394Z,26.92
2016-06-07T10:01:28.944Z,26.91
2016-06-07T10:02:27.696Z,27.01
2016-06-07T10:03:27.324Z,26.94
2016-06-07T10:04:27.452Z,26.96
2016-06-07T10:05:27.455Z,27.04
2016-06-07T10:06:27.363Z,27.05
2016-06-07T10:07:27.382Z,27.09
2016-06-07T10:08:27.666Z,27.02
2016-06-07T10:09:27.247Z,27.01
2016-06-07T10:10:27.233Z,27.01
2016-06-07T10:11:27.251Z,27.05
2016-06-07T10:12:27.270Z,26.96
2016-06-07T10:13:26.991Z,26.95
2016-06-07T10:14:27.213Z,27.01
2016-06-07T10:15:27.169Z,27.02
2016-06-07T10:16:27.171Z,26.99
2016-06-07T10:17:26.987Z,26.99
2016-06-07T10:18:43.521Z,27.02
2016-06-07T10:19:27.068Z,27.02
2016-06-07T10:20:27.150Z,27.01
2016-06-07T10:21:27.230Z,26.89
2016-06-07T10:22:27.060Z,27.04
2016-06-07T10:23:27.049Z,27.05
2016-06-07T10:24:27.066Z,26.99
2016-06-07T10:25:27.084Z,27.11
2016-06-07T10:26:26.978Z,27.02
2016-06-07T10:27:26.965Z,27.05
2016-06-07T10:28:26.921Z,27.04
2016-06-07T10:29:27.017Z,27.06
2016-06-07T10:30:26.910Z,27.06
2016-06-07T10:31:27.319Z,27.11
2016-06-07T10:32:26.869Z,27.14
2016-06-07T10:33:27.184Z,27.17
2016-06-07T10:34:27.140Z,27.13
2016-06-07T10:35:26.831Z,27.28
2016-06-07T10:36:26.848Z,27.26
2016-06-07T10:37:27.257Z,27.2
2016-06-07T10:38:27.009Z,27.2
2016-06-07T10:39:27.388Z,27.24
2016-06-07T10:40:27.000Z,27.24
2016-06-07T10:41:27.393Z,27.33
2016-06-07T10:42:26.865Z,27.28
2016-06-07T10:43:27.352Z,27.28
2016-06-07T10:44:27.026Z,27.31
2016-06-07T10:45:26.686Z,27.29
2016-06-07T10:46:27.360Z,27.35
2016-06-07T10:47:27.269Z,27.38
2016-06-07T10:48:26.755Z,27.26
2016-06-07T10:49:26.869Z,27.42
2016-06-07T10:50:26.589Z,27.43
2016-06-07T10:51:30.920Z,27.46
2016-06-07T10:52:28.141Z,27.47
2016-06-07T10:53:26.925Z,27.41
2016-06-07T10:54:26.521Z,27.48
2016-06-07T10:55:26.522Z,27.54
2016-06-07T10:56:26.571Z,27.58
2016-06-07T10:57:27.119Z,27.51
2016-06-07T10:58:26.668Z,27.61
2016-06-07T10:59:26.530Z,27.53
2016-06-07T11:00:26.493Z,27.58
2016-06-07T11:01:26.531Z,27.53
2016-06-07T11:02:26.633Z,27.59
2016-06-07T11:03:26.955Z,27.58
2016-06-07T11:04:26.931Z,27.66
2016-06-07T11:05:26.499Z,27.54
2016-06-07T11:06:26.597Z,27.64
2016-06-07T11:07:26.649Z,27.64
2016-06-07T11:08:27.388Z,27.67
2016-06-07T11:09:26.409Z,27.7
2016-06-07T11:10:26.412Z,27.7
2016-06-07T11:11:26.227Z,27.71
2016-06-07T11:12:26.669Z,27.76
2016-06-07T11:13:26.391Z,27.8
2016-06-07T11:14:26.346Z,27.84
2016-06-07T11:15:26.366Z,27.76
2016-06-07T11:16:26.307Z,27.84
2016-06-07T11:17:26.310Z,27.91
2016-06-07T11:18:26.281Z,27.77
2016-06-07T11:19:26.284Z,27.84
2016-06-07T11:20:26.272Z,27.88
2016-06-07T11:21:26.978Z,27.82
2016-06-07T11:22:26.245Z,27.92
2016-06-07T11:23:26.873Z,27.96
2016-06-07T11:24:26.344Z,27.91
2016-06-07T11:25:26.191Z,27.89
2016-06-07T11:26:26.163Z,27.89
2016-06-07T11:27:26.149Z,27.91
2016-06-07T11:28:26.403Z,27.94
2016-06-07T11:29:26.124Z,27.99
2016-06-07T11:30:26.096Z,28.03
2016-06-07T11:31:26.098Z,28.06
2016-06-07T11:32:26.164Z,27.99
2016-06-07T11:33:26.088Z,28.09
2016-06-07T11:34:26.060Z,28.13
2016-06-07T11:35:25.999Z,28.14
2016-06-07T11:36:26.096Z,28.22
2016-06-07T11:37:25.879Z,28.26
2016-06-07T11:38:26.492Z,28.29
2016-06-07T11:39:25.838Z,28.29
2016-06-07T11:40:26.012Z,28.31
2016-06-07T11:41:26.468Z,28.31
2016-06-07T11:42:26.159Z,28.31
2016-06-07T11:43:26.115Z,28.33
2016-06-07T11:44:26.196Z,28.36
2016-06-07T11:45:25.776Z,28.41
2016-06-07T11:46:25.904Z,28.38
2016-06-07T11:47:26.453Z,28.33
2016-06-07T11:48:26.034Z,28.38
2016-06-07T11:49:25.912Z,28.41
2016-06-07T11:50:25.837Z,28.44
2016-06-07T11:51:26.731Z,28.33
2016-06-07T11:52:27.076Z,28.58
2016-06-07T11:53:26.173Z,28.56
2016-06-07T11:54:26.941Z,28.72
2016-06-07T11:55:29.631Z,28.9
2016-06-07T11:56:26.149Z,29.31
2016-06-07T11:57:25.950Z,29.78
2016-06-07T11:58:26.405Z,30.65
2016-06-07T11:59:25.877Z,31.39
2016-06-07T12:00:25.973Z,31.84
2016-06-07T12:01:25.991Z,31.68
2016-06-07T12:02:25.853Z,31.53
2016-06-07T12:03:25.777Z,31.28
2016-06-07T12:04:25.655Z,30.89
2016-06-07T12:05:25.908Z,30.62
2016-06-07T12:06:25.911Z,30.33
2016-06-07T12:07:25.899Z,30.08
2016-06-07T12:08:26.432Z,29.94
2016-06-07T12:09:25.857Z,29.78
2016-06-07T12:10:26.015Z,29.66
2016-06-07T12:11:26.065Z,29.6
2016-06-07T12:12:26.301Z,29.59
2016-06-07T12:13:26.039Z,29.97
2016-06-07T12:14:25.729Z,30.94
2016-06-07T12:15:25.888Z,32.79
2016-06-07T12:17:29.862Z,37.1
2016-06-07T12:18:25.896Z,38.87
2016-06-07T12:19:26.024Z,39.98
2016-06-07T12:20:26.042Z,39.73
2016-06-07T12:21:25.967Z,38.23
2016-06-07T12:22:25.845Z,36.46
2016-06-07T12:23:26.535Z,35.47
2016-06-07T12:24:26.694Z,35.07
2016-06-07T12:25:26.150Z,34.95
2016-06-07T12:26:25.840Z,34.29
2016-06-07T12:27:25.874Z,33.74
2016-06-07T12:28:25.986Z,33.39
2016-06-07T12:29:25.894Z,33.53
2016-06-07T12:30:25.835Z,33.71
2016-06-07T12:31:25.822Z,33.39
2016-06-07T12:32:25.731Z,33.19
2016-06-07T12:33:25.640Z,32.99
2016-06-07T12:34:25.658Z,32.74
2016-06-07T12:35:25.520Z,32.7
2016-06-07T12:36:25.804Z,32.61
2016-06-07T12:37:25.651Z,32.54
2016-06-07T12:38:26.403Z,32.11
2016-06-07T12:39:26.202Z,31.77
2016-06-07T12:40:25.580Z,31.35
2016-06-07T12:41:25.740Z,31.2
2016-06-07T12:42:25.680Z,30.94
2016-06-07T12:43:25.979Z,30.89
2016-06-07T12:44:25.482Z,30.5
2016-06-07T12:45:25.656Z,30.5
2016-06-07T12:46:25.815Z,30.37
2016-06-07T12:47:25.459Z,30.45
2016-06-07T12:48:25.790Z,30.52
2016-06-07T12:49:25.715Z,30.34
2016-06-07T12:50:25.607Z,30.19
2016-06-07T12:51:25.751Z,29.82
2016-06-07T12:52:25.629Z,29.62
2016-06-07T12:53:28.475Z,29.41
2016-06-07T12:54:25.259Z,29.28
2016-06-07T12:55:25.167Z,29.11
2016-06-07T12:56:28.217Z,28.96
2016-06-07T12:57:25.298Z,28.84
2016-06-07T12:58:40.395Z,28.78